sensor_id;sensor_type;location;lat;lon;timestamp;pressure;altitude;pressure_sealevel;temperature;humidity
25130;BME280;13308;50.860;13.664;2022-10-16T06:02:56;96749.28;;;14.68;100.00
25130;BME280;13308;50.860;13.664;2022-10-16T06:05:21;96753.72;;;14.78;100.00
25130;BME280;13308;50.860;13.664;2022-10-16T06:07:46;96746.38;;;14.84;100.00
25130;BME280;13308;50.860;13.664;2022-10-16T06:10:12;96749.78;;;15.01;100.00
25130;BME280;13308;50.860;13.664;2022-10-16T06:12:37;96761.66;;;15.01;100.00
25130;BME280;13308;50.860;13.664;2022-10-16T06:15:03;96767.41;;;15.07;100.00
25130;BME280;13308;50.860;13.664;2022-10-16T06:17:28;96756.53;;;15.12;100.00
25130;BME280;13308;50.860;13.664;2022-10-16T06:19:54;96768.81;;;15.24;100.00
25130;BME280;13308;50.860;13.664;2022-10-16T06:22:19;96769.13;;;15.38;100.00
25130;BME280;13308;50.860;13.664;2022-10-16T06:24:45;96776.75;;;15.47;100.00
25130;BME280;13308;50.860;13.664;2022-10-16T06:27:11;96776.63;;;15.50;100.00
25130;BME280;13308;50.860;13.664;2022-10-16T06:29:36;96776.25;;;15.61;100.00
25130;BME280;13308;50.860;13.664;2022-10-16T06:32:02;96781.34;;;15.62;100.00
25130;BME280;13308;50.860;13.664;2022-10-16T06:34:27;96784.72;;;15.57;100.00
25130;BME280;13308;50.860;13.664;2022-10-16T06:36:52;96783.13;;;15.69;100.00
25130;BME280;13308;50.860;13.664;2022-10-16T06:39:18;96786.75;;;15.78;100.00
25130;BME280;13308;50.860;13.664;2022-10-16T06:41:43;96798.94;;;16.02;100.00
25130;BME280;13308;50.860;13.664;2022-10-16T06:44:14;96802.13;;;16.13;100.00
25130;BME280;13308;50.860;13.664;2022-10-16T06:46:40;96802.34;;;16.28;100.00
25130;BME280;13308;50.860;13.664;2022-10-16T06:49:05;96810.56;;;16.31;100.00
25130;BME280;13308;50.860;13.664;2022-10-16T06:51:30;96803.50;;;16.39;100.00
25130;BME280;13308;50.860;13.664;2022-10-16T06:53:59;96806.94;;;16.43;100.00
25130;BME280;13308;50.860;13.664;2022-10-16T06:56:26;96813.13;;;16.47;100.00
25130;BME280;13308;50.860;13.664;2022-10-16T06:58:53;96823.97;;;16.45;100.00
25130;BME280;13308;50.860;13.664;2022-10-16T07:01:21;96822.94;;;16.52;100.00
25130;BME280;13308;50.860;13.664;2022-10-16T07:03:48;96827.44;;;16.58;100.00
25130;BME280;13308;50.860;13.664;2022-10-16T07:06:17;96817.28;;;16.73;100.00
25130;BME280;13308;50.860;13.664;2022-10-16T07:08:44;96823.16;;;16.66;100.00
25130;BME280;13308;50.860;13.664;2022-10-16T07:11:13;96826.25;;;16.68;100.00
25130;BME280;13308;50.860;13.664;2022-10-16T07:13:41;96833.50;;;16.66;100.00
25130;BME280;13308;50.860;13.664;2022-10-16T07:16:27;96837.09;;;16.75;100.00
25130;BME280;13308;50.860;13.664;2022-10-16T07:19:00;96848.59;;;16.86;100.00
25130;BME280;13308;50.860;13.664;2022-10-16T07:21:31;96848.38;;;16.72;100.00
25130;BME280;13308;50.860;13.664;2022-10-16T07:24:00;96847.59;;;16.71;100.00
25130;BME280;13308;50.860;13.664;2022-10-16T07:26:29;96866.50;;;16.76;100.00
25130;BME280;13308;50.860;13.664;2022-10-16T07:28:55;96859.25;;;16.79;100.00
25130;BME280;13308;50.860;13.664;2022-10-16T07:31:22;96862.41;;;16.99;100.00
25130;BME280;13308;50.860;13.664;2022-10-16T07:33:48;96865.97;;;16.90;100.00
25130;BME280;13308;50.860;13.664;2022-10-16T07:36:15;96862.69;;;16.92;100.00
25130;BME280;13308;50.860;13.664;2022-10-16T07:38:41;96870.00;;;16.98;100.00
25130;BME280;13308;50.860;13.664;2022-10-16T07:41:10;96868.91;;;16.96;100.00
25130;BME280;13308;50.860;13.664;2022-10-16T07:43:39;96874.63;;;16.92;100.00
25130;BME280;13308;50.860;13.664;2022-10-16T07:46:05;96882.97;;;16.92;100.00
25130;BME280;13308;50.860;13.664;2022-10-16T07:48:32;96886.13;;;17.03;100.00
25130;BME280;13308;50.860;13.664;2022-10-16T07:50:59;96882.84;;;17.05;100.00
25130;BME280;13308;50.860;13.664;2022-10-16T07:53:25;96891.13;;;17.17;100.00
25130;BME280;13308;50.860;13.664;2022-10-16T07:55:51;96899.19;;;17.15;100.00
25130;BME280;13308;50.860;13.664;2022-10-16T07:58:16;96900.94;;;17.31;100.00
25130;BME280;13308;50.860;13.664;2022-10-16T08:00:42;96909.44;;;17.36;100.00
25130;BME280;13308;50.860;13.664;2022-10-16T08:03:08;96911.00;;;17.37;100.00
25130;BME280;13308;50.860;13.664;2022-10-16T08:05:33;96896.34;;;17.46;100.00
25130;BME280;13308;50.860;13.664;2022-10-16T08:08:00;96887.25;;;17.72;100.00
25130;BME280;13308;50.860;13.664;2022-10-16T08:10:28;96884.47;;;17.81;100.00
25130;BME280;13308;50.860;13.664;2022-10-16T08:12:53;96878.25;;;18.13;100.00
25130;BME280;13308;50.860;13.664;2022-10-16T08:15:19;96897.78;;;18.58;100.00
25130;BME280;13308;50.860;13.664;2022-10-16T08:17:54;96882.56;;;18.59;100.00
25130;BME280;13308;50.860;13.664;2022-10-16T08:20:19;96882.47;;;18.86;100.00
25130;BME280;13308;50.860;13.664;2022-10-16T08:22:45;96898.66;;;18.82;100.00
25130;BME280;13308;50.860;13.664;2022-10-16T08:25:11;96896.78;;;18.79;100.00
25130;BME280;13308;50.860;13.664;2022-10-16T08:27:36;96891.22;;;18.70;100.00
25130;BME280;13308;50.860;13.664;2022-10-16T08:30:01;96889.19;;;19.21;98.18
25130;BME280;13308;50.860;13.664;2022-10-16T08:32:27;96900.50;;;19.82;94.94
25130;BME280;13308;50.860;13.664;2022-10-16T08:34:52;96907.25;;;20.52;90.02
25130;BME280;13308;50.860;13.664;2022-10-16T08:37:18;96911.31;;;20.51;89.81
25130;BME280;13308;50.860;13.664;2022-10-16T08:39:43;96914.03;;;20.60;88.99
25130;BME280;13308;50.860;13.664;2022-10-16T08:50:24;96918.03;;;20.15;89.64
25130;BME280;13308;50.860;13.664;2022-10-16T08:52:52;96922.81;;;19.68;91.07
25130;BME280;13308;50.860;13.664;2022-10-16T08:55:38;96916.47;;;19.67;91.83
25130;BME280;13308;50.860;13.664;2022-10-16T08:58:15;96919.06;;;19.47;93.22
25130;BME280;13308;50.860;13.664;2022-10-16T09:00:41;96919.75;;;19.66;93.39
25130;BME280;13308;50.860;13.664;2022-10-16T09:03:28;96925.09;;;19.55;93.23
25130;BME280;13308;50.860;13.664;2022-10-16T09:11:37;96919.31;;;20.05;90.07
25130;BME280;13308;50.860;13.664;2022-10-16T09:14:28;96923.81;;;21.22;86.68
25130;BME280;13308;50.860;13.664;2022-10-16T09:17:25;96917.06;;;21.63;83.21
25130;BME280;13308;50.860;13.664;2022-10-16T09:19:58;96927.09;;;21.21;83.78
25130;BME280;13308;50.860;13.664;2022-10-16T09:22:27;96932.56;;;21.44;82.20
25130;BME280;13308;50.860;13.664;2022-10-16T09:24:59;96928.69;;;21.42;83.38
25130;BME280;13308;50.860;13.664;2022-10-16T09:27:25;96930.72;;;21.56;82.99
25130;BME280;13308;50.860;13.664;2022-10-16T09:29:55;96933.34;;;22.14;80.67
25130;BME280;13308;50.860;13.664;2022-10-16T09:32:22;96941.50;;;22.77;77.60
25130;BME280;13308;50.860;13.664;2022-10-16T09:34:50;96934.09;;;22.54;77.43
25130;BME280;13308;50.860;13.664;2022-10-16T09:37:21;96932.63;;;21.99;81.04
25130;BME280;13308;50.860;13.664;2022-10-16T09:39:52;96935.97;;;21.83;79.64
25130;BME280;13308;50.860;13.664;2022-10-16T09:42:31;96935.31;;;21.39;81.75
25130;BME280;13308;50.860;13.664;2022-10-16T09:44:57;96927.41;;;20.94;83.62
25130;BME280;13308;50.860;13.664;2022-10-16T09:47:24;96933.72;;;20.89;85.42
25130;BME280;13308;50.860;13.664;2022-10-16T09:50:04;96934.94;;;21.17;83.94
25130;BME280;13308;50.860;13.664;2022-10-16T09:52:40;96929.13;;;21.06;84.64
25130;BME280;13308;50.860;13.664;2022-10-16T09:55:17;96946.97;;;21.03;85.52
25130;BME280;13308;50.860;13.664;2022-10-16T09:57:53;96951.19;;;20.84;86.84
25130;BME280;13308;50.860;13.664;2022-10-16T10:00:19;96954.44;;;20.68;87.07
25130;BME280;13308;50.860;13.664;2022-10-16T10:02:45;96948.41;;;20.46;87.29
25130;BME280;13308;50.860;13.664;2022-10-16T10:05:28;96946.78;;;20.39;88.79
25130;BME280;13308;50.860;13.664;2022-10-16T10:07:56;96957.69;;;20.52;87.39
25130;BME280;13308;50.860;13.664;2022-10-16T10:10:28;96963.84;;;20.27;89.19
25130;BME280;13308;50.860;13.664;2022-10-16T10:12:54;96970.59;;;20.35;88.86
25130;BME280;13308;50.860;13.664;2022-10-16T10:15:21;96967.34;;;20.36;88.60
25130;BME280;13308;50.860;13.664;2022-10-16T10:17:57;96975.75;;;20.36;88.67
25130;BME280;13308;50.860;13.664;2022-10-16T10:20:33;96980.94;;;20.29;90.23
25130;BME280;13308;50.860;13.664;2022-10-16T10:23:00;96981.72;;;20.29;89.87
25130;BME280;13308;50.860;13.664;2022-10-16T10:26:04;96978.94;;;20.44;88.70
25130;BME280;13308;50.860;13.664;2022-10-16T10:31:39;96981.38;;;20.51;88.87
25130;BME280;13308;50.860;13.664;2022-10-16T10:34:32;96992.31;;;20.49;89.40
25130;BME280;13308;50.860;13.664;2022-10-16T10:39:49;96995.72;;;20.29;85.85
25130;BME280;13308;50.860;13.664;2022-10-16T10:42:28;97005.03;;;20.35;84.85
25130;BME280;13308;50.860;13.664;2022-10-16T10:47:53;97003.66;;;20.31;85.07
25130;BME280;13308;50.860;13.664;2022-10-16T10:55:50;97018.69;;;20.80;84.44
25130;BME280;13308;50.860;13.664;2022-10-16T10:58:43;97012.28;;;20.80;83.18
25130;BME280;13308;50.860;13.664;2022-10-16T11:01:14;97027.94;;;20.72;85.37
25130;BME280;13308;50.860;13.664;2022-10-16T11:03:53;97017.66;;;20.69;82.83
25130;BME280;13308;50.860;13.664;2022-10-16T11:06:26;97023.47;;;20.65;83.81
25130;BME280;13308;50.860;13.664;2022-10-16T11:09:22;97016.31;;;20.64;85.27
25130;BME280;13308;50.860;13.664;2022-10-16T11:12:02;97014.69;;;20.72;83.97
25130;BME280;13308;50.860;13.664;2022-10-16T11:17:05;97024.50;;;20.91;83.01
25130;BME280;13308;50.860;13.664;2022-10-16T11:22:19;97023.94;;;21.02;83.31
25130;BME280;13308;50.860;13.664;2022-10-16T11:25:00;97017.56;;;21.16;81.86
25130;BME280;13308;50.860;13.664;2022-10-16T11:27:39;97011.56;;;21.08;82.29
25130;BME280;13308;50.860;13.664;2022-10-16T11:30:14;97008.47;;;21.06;82.58
25130;BME280;13308;50.860;13.664;2022-10-16T11:32:52;97014.66;;;20.96;82.40
25130;BME280;13308;50.860;13.664;2022-10-16T11:35:37;97013.47;;;20.88;82.60
25130;BME280;13308;50.860;13.664;2022-10-16T11:38:11;97014.28;;;21.03;81.71
25130;BME280;13308;50.860;13.664;2022-10-16T11:40:41;97009.53;;;21.38;79.98
25130;BME280;13308;50.860;13.664;2022-10-16T11:43:20;97021.81;;;21.84;78.52
25130;BME280;13308;50.860;13.664;2022-10-16T11:45:52;97023.00;;;21.97;77.97
25130;BME280;13308;50.860;13.664;2022-10-16T11:50:53;97027.03;;;22.45;75.10
25130;BME280;13308;50.860;13.664;2022-10-16T11:53:38;97022.38;;;23.08;71.79
25130;BME280;13308;50.860;13.664;2022-10-16T11:56:07;97030.13;;;24.37;70.11
25130;BME280;13308;50.860;13.664;2022-10-16T11:58:49;97034.69;;;24.71;65.81
25130;BME280;13308;50.860;13.664;2022-10-16T12:01:33;97042.66;;;24.78;65.14
25130;BME280;13308;50.860;13.664;2022-10-16T12:04:06;97048.25;;;24.67;64.86
25130;BME280;13308;50.860;13.664;2022-10-16T12:09:17;97033.75;;;23.39;67.74
25130;BME280;13308;50.860;13.664;2022-10-16T12:11:45;97045.16;;;23.30;70.47
25130;BME280;13308;50.860;13.664;2022-10-16T12:16:37;97044.66;;;23.57;68.41
25130;BME280;13308;50.860;13.664;2022-10-16T12:19:11;97045.13;;;23.81;68.29
25130;BME280;13308;50.860;13.664;2022-10-16T12:21:37;97042.88;;;24.27;66.39
25130;BME280;13308;50.860;13.664;2022-10-16T12:24:03;97047.94;;;24.12;65.50
25130;BME280;13308;50.860;13.664;2022-10-16T12:26:34;97041.66;;;23.97;66.13
25130;BME280;13308;50.860;13.664;2022-10-16T12:29:14;97043.84;;;23.51;68.92
25130;BME280;13308;50.860;13.664;2022-10-16T12:31:45;97040.56;;;23.58;68.30
25130;BME280;13308;50.860;13.664;2022-10-16T12:34:23;97050.97;;;23.77;69.47
25130;BME280;13308;50.860;13.664;2022-10-16T12:36:53;97049.66;;;23.73;69.30
25130;BME280;13308;50.860;13.664;2022-10-16T12:39:27;97048.59;;;24.38;67.56
25130;BME280;13308;50.860;13.664;2022-10-16T12:44:44;97053.53;;;23.50;70.09
25130;BME280;13308;50.860;13.664;2022-10-16T12:47:20;97051.88;;;23.38;71.13
25130;BME280;13308;50.860;13.664;2022-10-16T12:49:52;97053.50;;;22.79;71.88
25130;BME280;13308;50.860;13.664;2022-10-16T12:52:34;97065.44;;;23.14;71.18
25130;BME280;13308;50.860;13.664;2022-10-16T12:55:00;97063.13;;;23.12;69.93
25130;BME280;13308;50.860;13.664;2022-10-16T12:57:44;97057.63;;;22.58;71.62
25130;BME280;13308;50.860;13.664;2022-10-16T13:00:26;97054.84;;;22.63;73.21
25130;BME280;13308;50.860;13.664;2022-10-16T13:05:50;97067.97;;;23.12;70.82
25130;BME280;13308;50.860;13.664;2022-10-16T13:08:34;97056.75;;;23.63;68.27
25130;BME280;13308;50.860;13.664;2022-10-16T13:11:29;97055.34;;;22.82;71.88
25130;BME280;13308;50.860;13.664;2022-10-16T13:17:21;97060.66;;;22.20;75.60
25130;BME280;13308;50.860;13.664;2022-10-16T13:20:21;97060.66;;;22.20;75.54
25130;BME280;13308;50.860;13.664;2022-10-16T13:23:42;97052.34;;;22.11;76.41
25130;BME280;13308;50.860;13.664;2022-10-16T13:26:31;97056.31;;;23.19;73.22
25130;BME280;13308;50.860;13.664;2022-10-16T13:28:35;97047.06;;;24.37;67.30
25130;BME280;13308;50.860;13.664;2022-10-16T13:31:03;97052.22;;;23.76;72.44
25130;BME280;13308;50.860;13.664;2022-10-16T13:33:39;97050.91;;;24.34;66.80
25130;BME280;13308;50.860;13.664;2022-10-16T13:36:06;97067.59;;;26.04;61.77
25130;BME280;13308;50.860;13.664;2022-10-16T13:38:34;97067.41;;;25.16;64.34
25130;BME280;13308;50.860;13.664;2022-10-16T13:41:14;97062.19;;;24.03;68.22
25130;BME280;13308;50.860;13.664;2022-10-16T13:43:42;97065.22;;;23.68;70.65
25130;BME280;13308;50.860;13.664;2022-10-16T13:48:43;97063.66;;;22.71;76.21
25130;BME280;13308;50.860;13.664;2022-10-16T13:51:16;97060.41;;;22.38;77.39
25130;BME280;13308;50.860;13.664;2022-10-16T13:53:43;97068.41;;;22.10;77.03
25130;BME280;13308;50.860;13.664;2022-10-16T13:56:14;97059.19;;;21.75;78.52
25130;BME280;13308;50.860;13.664;2022-10-16T13:58:39;97065.56;;;21.76;81.06
25130;BME280;13308;50.860;13.664;2022-10-16T14:01:23;97072.91;;;22.02;78.90
25130;BME280;13308;50.860;13.664;2022-10-16T14:03:50;97072.03;;;22.31;78.64
25130;BME280;13308;50.860;13.664;2022-10-16T14:06:19;97067.88;;;22.61;77.29
25130;BME280;13308;50.860;13.664;2022-10-16T14:08:56;97072.69;;;22.40;78.76
25130;BME280;13308;50.860;13.664;2022-10-16T14:11:24;97073.53;;;22.12;78.96
25130;BME280;13308;50.860;13.664;2022-10-16T14:13:50;97082.28;;;22.14;78.43
25130;BME280;13308;50.860;13.664;2022-10-16T14:16:26;97079.41;;;21.94;77.98
25130;BME280;13308;50.860;13.664;2022-10-16T14:18:57;97090.56;;;21.74;76.92
25130;BME280;13308;50.860;13.664;2022-10-16T14:21:24;97088.88;;;21.53;77.19
25130;BME280;13308;50.860;13.664;2022-10-16T14:23:50;97086.59;;;21.37;77.54
25130;BME280;13308;50.860;13.664;2022-10-16T14:26:19;97084.34;;;21.41;78.52
25130;BME280;13308;50.860;13.664;2022-10-16T14:28:45;97081.25;;;21.39;78.26
25130;BME280;13308;50.860;13.664;2022-10-16T14:31:34;97080.28;;;21.42;79.36
25130;BME280;13308;50.860;13.664;2022-10-16T14:34:01;97080.59;;;21.44;79.87
25130;BME280;13308;50.860;13.664;2022-10-16T14:36:28;97081.66;;;21.61;78.62
25130;BME280;13308;50.860;13.664;2022-10-16T14:38:59;97076.78;;;21.47;79.06
25130;BME280;13308;50.860;13.664;2022-10-16T14:41:26;97078.06;;;21.46;78.84
25130;BME280;13308;50.860;13.664;2022-10-16T14:43:54;97088.88;;;21.53;79.05
25130;BME280;13308;50.860;13.664;2022-10-16T14:46:30;97085.00;;;21.65;78.05
25130;BME280;13308;50.860;13.664;2022-10-16T14:51:35;97095.88;;;21.43;80.98
25130;BME280;13308;50.860;13.664;2022-10-16T14:54:00;97096.94;;;21.31;80.97
25130;BME280;13308;50.860;13.664;2022-10-16T14:56:34;97103.47;;;21.13;80.96
25130;BME280;13308;50.860;13.664;2022-10-16T14:59:11;97100.38;;;21.11;81.94
25130;BME280;13308;50.860;13.664;2022-10-16T15:01:38;97106.84;;;21.03;83.03
25130;BME280;13308;50.860;13.664;2022-10-16T15:04:04;97109.06;;;20.99;84.08
25130;BME280;13308;50.860;13.664;2022-10-16T15:06:29;97116.09;;;20.94;82.54
25130;BME280;13308;50.860;13.664;2022-10-16T15:08:54;97113.00;;;20.69;83.23
25130;BME280;13308;50.860;13.664;2022-10-16T15:11:19;97117.34;;;20.70;83.05
25130;BME280;13308;50.860;13.664;2022-10-16T15:13:46;97123.03;;;20.61;84.22
25130;BME280;13308;50.860;13.664;2022-10-16T15:16:13;97118.13;;;20.47;84.11
25130;BME280;13308;50.860;13.664;2022-10-16T15:18:39;97112.59;;;20.29;85.49
25130;BME280;13308;50.860;13.664;2022-10-16T15:21:05;97125.03;;;20.37;85.37
25130;BME280;13308;50.860;13.664;2022-10-16T15:23:30;97121.97;;;20.26;84.33
25130;BME280;13308;50.860;13.664;2022-10-16T15:25:56;97125.69;;;20.32;84.86
25130;BME280;13308;50.860;13.664;2022-10-16T15:28:23;97126.41;;;20.09;86.03
25130;BME280;13308;50.860;13.664;2022-10-16T15:30:50;97129.06;;;20.03;86.20
25130;BME280;13308;50.860;13.664;2022-10-16T15:33:21;97124.41;;;20.00;85.85
25130;BME280;13308;50.860;13.664;2022-10-16T15:35:49;97132.97;;;19.97;85.62
25130;BME280;13308;50.860;13.664;2022-10-16T15:38:17;97137.03;;;19.87;86.59
25130;BME280;13308;50.860;13.664;2022-10-16T15:40:43;97141.47;;;19.61;88.68
25130;BME280;13308;50.860;13.664;2022-10-16T15:43:09;97144.63;;;19.54;89.31
25130;BME280;13308;50.860;13.664;2022-10-16T15:45:34;97147.41;;;19.45;89.80
25130;BME280;13308;50.860;13.664;2022-10-16T15:48:00;97145.88;;;19.26;90.72
25130;BME280;13308;50.860;13.664;2022-10-16T15:50:26;97144.63;;;19.09;91.21
25130;BME280;13308;50.860;13.664;2022-10-16T15:52:51;97144.94;;;18.75;94.23
25130;BME280;13308;50.860;13.664;2022-10-16T15:55:17;97144.56;;;18.55;94.73
25130;BME280;13308;50.860;13.664;2022-10-16T15:57:44;97144.69;;;18.34;96.39
25130;BME280;13308;50.860;13.664;2022-10-16T16:00:15;97143.38;;;18.26;95.12
25130;BME280;13308;50.860;13.664;2022-10-16T16:02:42;97144.28;;;17.83;97.71
25130;BME280;13308;50.860;13.664;2022-10-16T16:05:08;97141.00;;;17.76;98.10
25130;BME280;13308;50.860;13.664;2022-10-16T16:07:38;97142.41;;;17.50;99.38
25130;BME280;13308;50.860;13.664;2022-10-16T16:10:07;97150.25;;;17.21;100.00
25130;BME280;13308;50.860;13.664;2022-10-16T16:12:33;97155.09;;;17.08;100.00
25130;BME280;13308;50.860;13.664;2022-10-16T16:14:59;97160.28;;;16.97;100.00
25130;BME280;13308;50.860;13.664;2022-10-16T16:17:24;97162.34;;;16.84;100.00
25130;BME280;13308;50.860;13.664;2022-10-16T16:19:50;97166.47;;;16.79;100.00
25130;BME280;13308;50.860;13.664;2022-10-16T16:22:15;97159.22;;;16.82;100.00
25130;BME280;13308;50.860;13.664;2022-10-16T16:24:41;97163.88;;;16.85;100.00
25130;BME280;13308;50.860;13.664;2022-10-16T16:27:07;97172.94;;;16.76;100.00
25130;BME280;13308;50.860;13.664;2022-10-16T16:29:32;97167.41;;;16.64;100.00
25130;BME280;13308;50.860;13.664;2022-10-16T16:31:59;97168.66;;;16.50;100.00
25130;BME280;13308;50.860;13.664;2022-10-16T16:34:26;97167.69;;;16.44;100.00
25130;BME280;13308;50.860;13.664;2022-10-16T16:36:52;97179.69;;;16.41;100.00
25130;BME280;13308;50.860;13.664;2022-10-16T16:39:17;97177.59;;;16.45;100.00
25130;BME280;13308;50.860;13.664;2022-10-16T16:41:43;97180.59;;;16.38;100.00
25130;BME280;13308;50.860;13.664;2022-10-16T16:44:11;97195.16;;;16.42;100.00
25130;BME280;13308;50.860;13.664;2022-10-16T16:46:37;97194.06;;;16.52;100.00
25130;BME280;13308;50.860;13.664;2022-10-16T16:49:06;97200.09;;;16.38;100.00
25130;BME280;13308;50.860;13.664;2022-10-16T16:51:32;97203.84;;;16.32;100.00
25130;BME280;13308;50.860;13.664;2022-10-16T16:53:57;97212.88;;;16.23;100.00
25130;BME280;13308;50.860;13.664;2022-10-16T16:56:24;97217.00;;;16.19;100.00
25130;BME280;13308;50.860;13.664;2022-10-16T16:58:51;97210.84;;;16.11;100.00
25130;BME280;13308;50.860;13.664;2022-10-16T17:01:17;97232.25;;;16.14;100.00
25130;BME280;13308;50.860;13.664;2022-10-16T17:03:44;97234.03;;;16.08;100.00
25130;BME280;13308;50.860;13.664;2022-10-16T17:06:10;97237.91;;;15.98;100.00
25130;BME280;13308;50.860;13.664;2022-10-16T17:08:37;97232.22;;;15.89;100.00
25130;BME280;13308;50.860;13.664;2022-10-16T17:11:04;97233.91;;;15.87;100.00
25130;BME280;13308;50.860;13.664;2022-10-16T17:13:31;97246.31;;;15.82;100.00
25130;BME280;13308;50.860;13.664;2022-10-16T17:16:00;97243.44;;;15.73;100.00
25130;BME280;13308;50.860;13.664;2022-10-16T17:18:25;97251.09;;;15.69;100.00
25130;BME280;13308;50.860;13.664;2022-10-16T17:20:51;97248.50;;;15.62;100.00
25130;BME280;13308;50.860;13.664;2022-10-16T17:23:18;97256.16;;;15.58;100.00
25130;BME280;13308;50.860;13.664;2022-10-16T17:25:44;97263.16;;;15.50;100.00
25130;BME280;13308;50.860;13.664;2022-10-16T17:28:11;97266.47;;;15.45;100.00
25130;BME280;13308;50.860;13.664;2022-10-16T17:30:38;97257.63;;;15.34;100.00
25130;BME280;13308;50.860;13.664;2022-10-16T17:33:04;97255.13;;;15.40;100.00
25130;BME280;13308;50.860;13.664;2022-10-16T17:35:36;97252.59;;;15.29;100.00
25130;BME280;13308;50.860;13.664;2022-10-16T17:38:02;97262.66;;;15.23;100.00
